sensor_id;sensor_type;location;lat;lon;timestamp;pressure;altitude;pressure_sealevel;temperature;humidity
11190;BME280;5651;50.926;4.718;2023-04-06T00:01:10;101679.44;;;2.77;50.62
11190;BME280;5651;50.926;4.718;2023-04-06T00:03:37;101680.25;;;2.76;50.95
11190;BME280;5651;50.926;4.718;2023-04-06T00:06:03;101680.22;;;2.75;51.00
11190;BME280;5651;50.926;4.718;2023-04-06T00:08:29;101677.63;;;2.75;50.61
11190;BME280;5651;50.926;4.718;2023-04-06T00:10:55;101675.97;;;2.75;50.47
11190;BME280;5651;50.926;4.718;2023-04-06T00:13:21;101672.50;;;2.75;49.84
11190;BME280;5651;50.926;4.718;2023-04-06T00:15:47;101677.63;;;2.75;49.50
11190;BME280;5651;50.926;4.718;2023-04-06T00:18:13;101670.06;;;2.78;48.92
11190;BME280;5651;50.926;4.718;2023-04-06T00:20:39;101670.09;;;2.79;49.21
11190;BME280;5651;50.926;4.718;2023-04-06T00:23:05;101664.16;;;2.80;50.58
11190;BME280;5651;50.926;4.718;2023-04-06T00:25:31;101669.53;;;2.87;50.75
11190;BME280;5651;50.926;4.718;2023-04-06T00:27:57;101657.47;;;2.85;51.07
11190;BME280;5651;50.926;4.718;2023-04-06T00:30:23;101658.38;;;2.86;49.93
11190;BME280;5651;50.926;4.718;2023-04-06T00:32:49;101660.19;;;2.89;51.35
11190;BME280;5651;50.926;4.718;2023-04-06T00:35:15;101653.28;;;2.88;51.22
11190;BME280;5651;50.926;4.718;2023-04-06T00:37:41;101655.81;;;2.86;51.04
11190;BME280;5651;50.926;4.718;2023-04-06T00:40:07;101648.94;;;2.87;50.54
11190;BME280;5651;50.926;4.718;2023-04-06T00:42:34;101644.75;;;2.89;51.44
11190;BME280;5651;50.926;4.718;2023-04-06T00:45:00;101642.28;;;2.92;51.44
11190;BME280;5651;50.926;4.718;2023-04-06T00:47:27;101641.53;;;2.94;51.19
11190;BME280;5651;50.926;4.718;2023-04-06T00:49:56;101640.78;;;2.97;51.23
11190;BME280;5651;50.926;4.718;2023-04-06T00:52:22;101634.91;;;3.01;52.28
11190;BME280;5651;50.926;4.718;2023-04-06T00:54:49;101629.78;;;3.01;51.57
11190;BME280;5651;50.926;4.718;2023-04-06T00:57:16;101626.38;;;3.02;51.92
11190;BME280;5651;50.926;4.718;2023-04-06T00:59:42;101626.53;;;3.05;50.72
11190;BME280;5651;50.926;4.718;2023-04-06T01:02:08;101626.53;;;3.05;51.03
11190;BME280;5651;50.926;4.718;2023-04-06T01:04:34;101623.19;;;3.08;51.44
11190;BME280;5651;50.926;4.718;2023-04-06T01:07:00;101620.69;;;3.11;51.27
11190;BME280;5651;50.926;4.718;2023-04-06T01:09:30;101612.16;;;3.12;50.39
11190;BME280;5651;50.926;4.718;2023-04-06T01:11:57;101618.25;;;3.14;50.53
11190;BME280;5651;50.926;4.718;2023-04-06T01:14:24;101614.06;;;3.16;50.39
11190;BME280;5651;50.926;4.718;2023-04-06T01:16:50;101614.16;;;3.19;50.93
11190;BME280;5651;50.926;4.718;2023-04-06T01:19:16;101608.22;;;3.22;51.17
11190;BME280;5651;50.926;4.718;2023-04-06T01:21:42;101606.66;;;3.25;50.74
11190;BME280;5651;50.926;4.718;2023-04-06T01:24:08;101603.25;;;3.26;50.61
11190;BME280;5651;50.926;4.718;2023-04-06T01:26:35;101601.75;;;3.31;49.89
11190;BME280;5651;50.926;4.718;2023-04-06T01:29:02;101595.03;;;3.35;49.73
11190;BME280;5651;50.926;4.718;2023-04-06T01:31:29;101602.03;;;3.39;50.03
11190;BME280;5651;50.926;4.718;2023-04-06T01:33:55;101593.59;;;3.43;50.67
11190;BME280;5651;50.926;4.718;2023-04-06T01:36:21;101589.59;;;3.52;52.17
11190;BME280;5651;50.926;4.718;2023-04-06T01:38:48;101595.00;;;3.58;50.81
11190;BME280;5651;50.926;4.718;2023-04-06T01:41:13;101580.81;;;3.71;52.77
11190;BME280;5651;50.926;4.718;2023-04-06T01:43:39;101580.38;;;3.83;51.75
11190;BME280;5651;50.926;4.718;2023-04-06T01:46:05;101575.47;;;3.89;52.05
11190;BME280;5651;50.926;4.718;2023-04-06T01:48:31;101573.88;;;3.92;51.68
11190;BME280;5651;50.926;4.718;2023-04-06T01:50:57;101574.94;;;3.99;51.10
11190;BME280;5651;50.926;4.718;2023-04-06T01:53:23;101574.22;;;4.03;51.44
11190;BME280;5651;50.926;4.718;2023-04-06T01:55:49;101571.72;;;4.06;51.58
11190;BME280;5651;50.926;4.718;2023-04-06T01:58:15;101564.97;;;4.10;51.16
11190;BME280;5651;50.926;4.718;2023-04-06T02:00:40;101562.47;;;4.11;51.42
11190;BME280;5651;50.926;4.718;2023-04-06T02:03:06;101565.13;;;4.15;51.25
11190;BME280;5651;50.926;4.718;2023-04-06T02:05:34;101560.03;;;4.16;50.70
11190;BME280;5651;50.926;4.718;2023-04-06T02:08:04;101556.63;;;4.17;51.84
11190;BME280;5651;50.926;4.718;2023-04-06T02:10:31;101559.28;;;4.19;53.33
11190;BME280;5651;50.926;4.718;2023-04-06T02:12:57;101556.63;;;4.17;53.15
11190;BME280;5651;50.926;4.718;2023-04-06T02:15:24;101548.88;;;4.17;54.88
11190;BME280;5651;50.926;4.718;2023-04-06T02:17:51;101553.19;;;4.17;53.22
11190;BME280;5651;50.926;4.718;2023-04-06T02:20:17;101549.69;;;4.16;52.46
11190;BME280;5651;50.926;4.718;2023-04-06T02:22:43;101536.75;;;4.15;51.84
11190;BME280;5651;50.926;4.718;2023-04-06T02:25:09;101547.13;;;4.16;52.05
11190;BME280;5651;50.926;4.718;2023-04-06T02:27:36;101546.31;;;4.17;51.86
11190;BME280;5651;50.926;4.718;2023-04-06T02:30:05;101539.50;;;4.19;51.09
11190;BME280;5651;50.926;4.718;2023-04-06T02:32:31;101545.78;;;4.27;52.10
11190;BME280;5651;50.926;4.718;2023-04-06T02:34:57;101540.19;;;4.41;51.99
11190;BME280;5651;50.926;4.718;2023-04-06T02:37:22;101538.88;;;4.54;52.40
11190;BME280;5651;50.926;4.718;2023-04-06T02:39:51;101533.72;;;4.54;52.04
11190;BME280;5651;50.926;4.718;2023-04-06T02:42:17;101533.75;;;4.55;54.43
11190;BME280;5651;50.926;4.718;2023-04-06T02:44:43;101523.59;;;4.60;53.99
11190;BME280;5651;50.926;4.718;2023-04-06T02:47:09;101534.00;;;4.63;55.24
11190;BME280;5651;50.926;4.718;2023-04-06T02:49:35;101518.66;;;4.68;60.42
11190;BME280;5651;50.926;4.718;2023-04-06T02:52:02;101523.84;;;4.68;55.74
11190;BME280;5651;50.926;4.718;2023-04-06T02:54:28;101520.41;;;4.69;56.14
11190;BME280;5651;50.926;4.718;2023-04-06T02:56:53;101522.97;;;4.69;55.23
11190;BME280;5651;50.926;4.718;2023-04-06T02:59:19;101525.53;;;4.67;54.54
11190;BME280;5651;50.926;4.718;2023-04-06T03:01:45;101528.13;;;4.69;53.72
11190;BME280;5651;50.926;4.718;2023-04-06T03:04:11;101522.97;;;4.69;53.43
11190;BME280;5651;50.926;4.718;2023-04-06T03:06:37;101521.31;;;4.71;53.08
11190;BME280;5651;50.926;4.718;2023-04-06T03:09:04;101517.25;;;4.78;54.08
11190;BME280;5651;50.926;4.718;2023-04-06T03:11:30;101509.53;;;4.79;57.34
11190;BME280;5651;50.926;4.718;2023-04-06T03:13:55;101509.63;;;4.82;55.40
11190;BME280;5651;50.926;4.718;2023-04-06T03:16:21;101510.75;;;4.90;57.12
11190;BME280;5651;50.926;4.718;2023-04-06T03:18:47;101506.53;;;4.94;56.90
11190;BME280;5651;50.926;4.718;2023-04-06T03:21:13;101494.91;;;5.08;54.68
11190;BME280;5651;50.926;4.718;2023-04-06T03:23:41;101501.31;;;5.23;53.93
11190;BME280;5651;50.926;4.718;2023-04-06T03:26:07;101491.81;;;5.22;54.21
11190;BME280;5651;50.926;4.718;2023-04-06T03:28:33;101490.16;;;5.24;56.03
11190;BME280;5651;50.926;4.718;2023-04-06T03:30:59;101490.91;;;5.21;57.91
11190;BME280;5651;50.926;4.718;2023-04-06T03:33:25;101490.22;;;5.27;59.57
11190;BME280;5651;50.926;4.718;2023-04-06T03:35:53;101483.44;;;5.31;56.83
11190;BME280;5651;50.926;4.718;2023-04-06T03:38:19;101485.31;;;5.36;55.68
11190;BME280;5651;50.926;4.718;2023-04-06T03:40:45;101481.41;;;5.51;56.81
11190;BME280;5651;50.926;4.718;2023-04-06T03:43:11;101487.34;;;5.48;57.41
11190;BME280;5651;50.926;4.718;2023-04-06T03:45:37;101487.22;;;5.44;58.75
11190;BME280;5651;50.926;4.718;2023-04-06T03:48:03;101480.31;;;5.43;59.44
11190;BME280;5651;50.926;4.718;2023-04-06T03:50:29;101479.72;;;5.53;57.90
11190;BME280;5651;50.926;4.718;2023-04-06T03:52:55;101477.75;;;5.44;59.17
11190;BME280;5651;50.926;4.718;2023-04-06T03:55:21;101485.63;;;5.49;58.61
11190;BME280;5651;50.926;4.718;2023-04-06T03:57:46;101474.56;;;5.53;60.30
11190;BME280;5651;50.926;4.718;2023-04-06T04:00:13;101482.22;;;5.50;59.72
11190;BME280;5651;50.926;4.718;2023-04-06T04:02:39;101482.25;;;5.51;61.75
11190;BME280;5651;50.926;4.718;2023-04-06T04:05:05;101487.50;;;5.53;61.73
11190;BME280;5651;50.926;4.718;2023-04-06T04:07:31;101484.91;;;5.53;59.79
11190;BME280;5651;50.926;4.718;2023-04-06T04:09:57;101478.97;;;5.57;59.55
11190;BME280;5651;50.926;4.718;2023-04-06T04:12:23;101488.50;;;5.60;59.07
11190;BME280;5651;50.926;4.718;2023-04-06T04:14:48;101481.66;;;5.62;60.61
11190;BME280;5651;50.926;4.718;2023-04-06T04:17:14;101480.88;;;5.64;61.25
11190;BME280;5651;50.926;4.718;2023-04-06T04:19:40;101486.03;;;5.64;61.49
11190;BME280;5651;50.926;4.718;2023-04-06T04:22:06;101485.38;;;5.71;60.18
11190;BME280;5651;50.926;4.718;2023-04-06T04:24:32;101482.84;;;5.73;61.17
11190;BME280;5651;50.926;4.718;2023-04-06T04:26:59;101483.06;;;5.82;58.97
11190;BME280;5651;50.926;4.718;2023-04-06T04:29:26;101486.31;;;5.75;62.30
11190;BME280;5651;50.926;4.718;2023-04-06T04:31:52;101484.94;;;5.90;58.96
11190;BME280;5651;50.926;4.718;2023-04-06T04:34:18;101484.13;;;5.91;59.18
11190;BME280;5651;50.926;4.718;2023-04-06T04:36:49;101485.84;;;5.90;59.96
11190;BME280;5651;50.926;4.718;2023-04-06T04:39:15;101480.72;;;5.93;60.75
11190;BME280;5651;50.926;4.718;2023-04-06T04:41:41;101481.59;;;5.92;60.00
11190;BME280;5651;50.926;4.718;2023-04-06T04:44:07;101486.78;;;5.92;58.93
11190;BME280;5651;50.926;4.718;2023-04-06T04:46:32;101482.56;;;5.97;58.17
11190;BME280;5651;50.926;4.718;2023-04-06T04:48:58;101488.59;;;5.98;58.90
11190;BME280;5651;50.926;4.718;2023-04-06T04:51:24;101479.84;;;5.91;59.61
11190;BME280;5651;50.926;4.718;2023-04-06T04:53:50;101483.59;;;6.02;58.72
11190;BME280;5651;50.926;4.718;2023-04-06T04:56:16;101491.13;;;5.95;58.93
11190;BME280;5651;50.926;4.718;2023-04-06T04:58:42;101490.19;;;5.91;58.97
11190;BME280;5651;50.926;4.718;2023-04-06T05:01:08;101492.19;;;6.01;57.89
11190;BME280;5651;50.926;4.718;2023-04-06T05:03:34;101490.53;;;6.05;56.71
11190;BME280;5651;50.926;4.718;2023-04-06T05:06:01;101492.53;;;6.15;56.93
11190;BME280;5651;50.926;4.718;2023-04-06T05:08:27;101493.66;;;6.27;57.24
11190;BME280;5651;50.926;4.718;2023-04-06T05:10:53;101492.78;;;6.26;57.07
11190;BME280;5651;50.926;4.718;2023-04-06T05:13:19;101494.41;;;6.23;57.47
11190;BME280;5651;50.926;4.718;2023-04-06T05:15:45;101485.97;;;6.31;58.10
11190;BME280;5651;50.926;4.718;2023-04-06T05:18:11;101492.81;;;6.28;56.98
11190;BME280;5651;50.926;4.718;2023-04-06T05:20:38;101489.22;;;6.21;57.69
11190;BME280;5651;50.926;4.718;2023-04-06T05:23:04;101497.78;;;6.18;58.09
11190;BME280;5651;50.926;4.718;2023-04-06T05:25:30;101491.00;;;6.24;57.94
11190;BME280;5651;50.926;4.718;2023-04-06T05:27:56;101495.22;;;6.20;58.08
11190;BME280;5651;50.926;4.718;2023-04-06T05:30:22;101489.22;;;6.21;58.68
11190;BME280;5651;50.926;4.718;2023-04-06T05:32:48;101486.75;;;6.26;58.40
11190;BME280;5651;50.926;4.718;2023-04-06T05:35:14;101485.97;;;6.30;57.43
11190;BME280;5651;50.926;4.718;2023-04-06T05:37:40;101494.41;;;6.23;59.92
11190;BME280;5651;50.926;4.718;2023-04-06T05:40:06;101488.56;;;6.30;57.81
11190;BME280;5651;50.926;4.718;2023-04-06T05:42:38;101489.50;;;6.33;58.10
11190;BME280;5651;50.926;4.718;2023-04-06T05:45:05;101493.84;;;6.34;57.57
11190;BME280;5651;50.926;4.718;2023-04-06T05:47:31;101490.38;;;6.34;56.78
11190;BME280;5651;50.926;4.718;2023-04-06T05:49:57;101490.31;;;6.32;56.95
11190;BME280;5651;50.926;4.718;2023-04-06T05:52:23;101487.69;;;6.29;59.06
11190;BME280;5651;50.926;4.718;2023-04-06T05:54:49;101485.16;;;6.32;57.30
11190;BME280;5651;50.926;4.718;2023-04-06T05:57:16;101485.28;;;6.39;57.21
11190;BME280;5651;50.926;4.718;2023-04-06T05:59:44;101488.88;;;6.44;56.34
11190;BME280;5651;50.926;4.718;2023-04-06T06:02:10;101485.47;;;6.45;57.02
11190;BME280;5651;50.926;4.718;2023-04-06T06:04:36;101484.53;;;6.43;60.93
11190;BME280;5651;50.926;4.718;2023-04-06T06:07:02;101482.91;;;6.48;61.03
11190;BME280;5651;50.926;4.718;2023-04-06T06:09:28;101482.09;;;6.50;64.10
11190;BME280;5651;50.926;4.718;2023-04-06T06:11:54;101480.53;;;6.57;61.50
11190;BME280;5651;50.926;4.718;2023-04-06T06:14:20;101477.25;;;6.64;62.12
11190;BME280;5651;50.926;4.718;2023-04-06T06:16:47;101474.72;;;6.68;64.28
11190;BME280;5651;50.926;4.718;2023-04-06T06:19:13;101485.47;;;6.86;61.90
11190;BME280;5651;50.926;4.718;2023-04-06T06:21:39;101477.59;;;6.81;64.17
11190;BME280;5651;50.926;4.718;2023-04-06T06:24:05;101481.22;;;6.90;62.11
11190;BME280;5651;50.926;4.718;2023-04-06T06:26:31;101481.50;;;7.02;62.03
11190;BME280;5651;50.926;4.718;2023-04-06T06:28:57;101486.72;;;7.05;61.51
11190;BME280;5651;50.926;4.718;2023-04-06T06:31:23;101480.72;;;7.08;62.30
11190;BME280;5651;50.926;4.718;2023-04-06T06:33:50;101484.13;;;7.05;63.72
11190;BME280;5651;50.926;4.718;2023-04-06T06:36:17;101481.56;;;7.07;64.84
11190;BME280;5651;50.926;4.718;2023-04-06T06:38:43;101487.66;;;7.09;65.72
11190;BME280;5651;50.926;4.718;2023-04-06T06:41:10;101486.19;;;7.20;63.97
11190;BME280;5651;50.926;4.718;2023-04-06T06:43:36;101491.56;;;7.31;61.95
11190;BME280;5651;50.926;4.718;2023-04-06T06:46:03;101489.00;;;7.34;63.15
11190;BME280;5651;50.926;4.718;2023-04-06T06:48:29;101481.16;;;7.29;64.54
11190;BME280;5651;50.926;4.718;2023-04-06T06:50:55;101492.41;;;7.32;64.11
11190;BME280;5651;50.926;4.718;2023-04-06T06:53:21;101489.78;;;7.28;66.33
11190;BME280;5651;50.926;4.718;2023-04-06T06:55:47;101491.66;;;7.36;63.98
11190;BME280;5651;50.926;4.718;2023-04-06T06:58:14;101492.72;;;7.47;63.04
11190;BME280;5651;50.926;4.718;2023-04-06T07:00:40;101483.19;;;7.46;63.13
11190;BME280;5651;50.926;4.718;2023-04-06T07:03:06;101491.06;;;7.52;63.62
11190;BME280;5651;50.926;4.718;2023-04-06T07:05:32;101483.38;;;7.57;62.26
11190;BME280;5651;50.926;4.718;2023-04-06T07:07:58;101492.25;;;7.70;62.04
11190;BME280;5651;50.926;4.718;2023-04-06T07:10:24;101480.97;;;7.66;62.73
11190;BME280;5651;50.926;4.718;2023-04-06T07:12:50;101487.13;;;7.73;63.49
11190;BME280;5651;50.926;4.718;2023-04-06T07:15:16;101489.47;;;7.57;66.16
11190;BME280;5651;50.926;4.718;2023-04-06T07:17:42;101487.88;;;7.66;64.92
11190;BME280;5651;50.926;4.718;2023-04-06T07:20:11;101486.31;;;7.75;63.86
11190;BME280;5651;50.926;4.718;2023-04-06T07:22:38;101486.34;;;7.77;64.82
11190;BME280;5651;50.926;4.718;2023-04-06T07:25:04;101484.50;;;7.71;66.26
11190;BME280;5651;50.926;4.718;2023-04-06T07:27:30;101479.31;;;7.71;68.48
11190;BME280;5651;50.926;4.718;2023-04-06T07:29:56;101480.31;;;7.78;66.64
11190;BME280;5651;50.926;4.718;2023-04-06T07:32:22;101486.34;;;7.78;68.47
11190;BME280;5651;50.926;4.718;2023-04-06T07:34:48;101490.75;;;7.83;68.36
11190;BME280;5651;50.926;4.718;2023-04-06T07:37:14;101488.28;;;7.90;66.46
11190;BME280;5651;50.926;4.718;2023-04-06T07:39:40;101486.66;;;7.96;66.22
11190;BME280;5651;50.926;4.718;2023-04-06T07:42:06;101491.78;;;7.92;71.89
11190;BME280;5651;50.926;4.718;2023-04-06T07:44:32;101494.47;;;7.97;71.07
11190;BME280;5651;50.926;4.718;2023-04-06T07:46:57;101486.75;;;8.02;70.41
11190;BME280;5651;50.926;4.718;2023-04-06T07:49:23;101485.09;;;8.08;71.31
11190;BME280;5651;50.926;4.718;2023-04-06T07:51:49;101492.13;;;8.14;72.02
11190;BME280;5651;50.926;4.718;2023-04-06T07:54:15;101491.44;;;8.24;68.57
11190;BME280;5651;50.926;4.718;2023-04-06T07:56:41;101487.09;;;8.23;74.00
11190;BME280;5651;50.926;4.718;2023-04-06T07:59:07;101487.16;;;8.28;72.28
11190;BME280;5651;50.926;4.718;2023-04-06T08:01:32;101491.59;;;8.34;75.08
11190;BME280;5651;50.926;4.718;2023-04-06T08:03:58;101483.09;;;8.46;72.74
11190;BME280;5651;50.926;4.718;2023-04-06T08:06:25;101479.72;;;8.50;76.03
11190;BME280;5651;50.926;4.718;2023-04-06T08:08:51;101481.69;;;8.66;72.59
11190;BME280;5651;50.926;4.718;2023-04-06T08:11:17;101482.38;;;8.54;79.62
11190;BME280;5651;50.926;4.718;2023-04-06T08:13:43;101480.78;;;8.63;78.20
11190;BME280;5651;50.926;4.718;2023-04-06T08:16:09;101476.44;;;8.65;78.12
11190;BME280;5651;50.926;4.718;2023-04-06T08:18:35;101487.78;;;8.70;78.66
11190;BME280;5651;50.926;4.718;2023-04-06T08:21:01;101479.38;;;8.88;73.30
11190;BME280;5651;50.926;4.718;2023-04-06T08:23:26;101483.63;;;8.83;76.37
11190;BME280;5651;50.926;4.718;2023-04-06T08:25:52;101492.28;;;8.83;76.34
11190;BME280;5651;50.926;4.718;2023-04-06T08:28:20;101483.72;;;8.92;73.58
11190;BME280;5651;50.926;4.718;2023-04-06T08:30:47;101484.63;;;8.94;76.44
11190;BME280;5651;50.926;4.718;2023-04-06T08:33:12;101482.03;;;8.94;76.50
11190;BME280;5651;50.926;4.718;2023-04-06T08:35:38;101488.97;;;8.94;79.19
11190;BME280;5651;50.926;4.718;2023-04-06T08:38:05;101483.78;;;8.94;79.14
11190;BME280;5651;50.926;4.718;2023-04-06T08:40:40;101485.47;;;8.90;82.20
11190;BME280;5651;50.926;4.718;2023-04-06T08:43:12;101488.13;;;8.96;79.74
11190;BME280;5651;50.926;4.718;2023-04-06T08:45:40;101482.16;;;9.02;79.96
11190;BME280;5651;50.926;4.718;2023-04-06T08:48:06;101489.22;;;9.15;76.87
11190;BME280;5651;50.926;4.718;2023-04-06T08:50:35;101488.31;;;9.13;79.60
11190;BME280;5651;50.926;4.718;2023-04-06T08:53:03;101483.25;;;9.23;79.19
11190;BME280;5651;50.926;4.718;2023-04-06T08:55:29;101477.25;;;9.30;77.85
11190;BME280;5651;50.926;4.718;2023-04-06T08:57:55;101474.66;;;9.28;79.34
11190;BME280;5651;50.926;4.718;2023-04-06T09:00:22;101472.06;;;9.33;79.93
11190;BME280;5651;50.926;4.718;2023-04-06T09:02:49;101479.06;;;9.37;80.23
11190;BME280;5651;50.926;4.718;2023-04-06T09:05:16;101473.06;;;9.46;79.38
11190;BME280;5651;50.926;4.718;2023-04-06T09:07:42;101481.66;;;9.37;84.21
11190;BME280;5651;50.926;4.718;2023-04-06T09:10:08;101466.09;;;9.42;84.56
11190;BME280;5651;50.926;4.718;2023-04-06T09:12:34;101469.63;;;9.47;87.23
11190;BME280;5651;50.926;4.718;2023-04-06T09:15:01;101471.41;;;9.52;84.82
11190;BME280;5651;50.926;4.718;2023-04-06T09:17:31;101471.50;;;9.63;82.82
11190;BME280;5651;50.926;4.718;2023-04-06T09:20:02;101472.41;;;9.67;84.31
11190;BME280;5651;50.926;4.718;2023-04-06T09:22:39;101471.56;;;9.66;83.52
11190;BME280;5651;50.926;4.718;2023-04-06T09:25:05;101476.72;;;9.63;87.19
11190;BME280;5651;50.926;4.718;2023-04-06T09:27:32;101475.91;;;9.72;83.28
11190;BME280;5651;50.926;4.718;2023-04-06T09:30:06;101476.81;;;9.76;83.57
11190;BME280;5651;50.926;4.718;2023-04-06T09:32:43;101475.81;;;9.60;88.40
11190;BME280;5651;50.926;4.718;2023-04-06T09:35:10;101475.03;;;9.68;86.14
11190;BME280;5651;50.926;4.718;2023-04-06T09:37:36;101475.06;;;9.75;86.62
11190;BME280;5651;50.926;4.718;2023-04-06T09:40:06;101476.91;;;9.85;85.84
11190;BME280;5651;50.926;4.718;2023-04-06T09:42:33;101469.81;;;9.67;89.76
11190;BME280;5651;50.926;4.718;2023-04-06T09:45:03;101469.00;;;9.74;87.94
11190;BME280;5651;50.926;4.718;2023-04-06T09:47:30;101469.06;;;9.77;89.56
11190;BME280;5651;50.926;4.718;2023-04-06T09:49:59;101471.78;;;9.97;85.70
11190;BME280;5651;50.926;4.718;2023-04-06T09:52:33;101470.91;;;9.94;87.06
11190;BME280;5651;50.926;4.718;2023-04-06T09:55:04;101462.16;;;9.82;89.01
11190;BME280;5651;50.926;4.718;2023-04-06T09:58:25;101456.59;;;9.45;95.55
11190;BME280;5651;50.926;4.718;2023-04-06T10:00:48;101455.75;;;9.49;94.68
11190;BME280;5651;50.926;4.718;2023-04-06T10:06:03;101446.50;;;9.79;88.44
11190;BME280;5651;50.926;4.718;2023-04-06T10:08:33;101455.25;;;9.88;90.39
11190;BME280;5651;50.926;4.718;2023-04-06T10:11:01;101450.97;;;9.94;92.56
11190;BME280;5651;50.926;4.718;2023-04-06T10:13:27;101453.56;;;9.93;94.03
11190;BME280;5651;50.926;4.718;2023-04-06T10:15:54;101456.09;;;9.85;95.80
11190;BME280;5651;50.926;4.718;2023-04-06T10:18:20;101449.00;;;9.65;97.52
11190;BME280;5651;50.926;4.718;2023-04-06T10:20:49;101445.53;;;9.68;97.67
11190;BME280;5651;50.926;4.718;2023-04-06T10:23:29;101441.22;;;9.72;96.98
11190;BME280;5651;50.926;4.718;2023-04-06T10:25:58;101437.59;;;9.51;100.00
11190;BME280;5651;50.926;4.718;2023-04-06T10:28:25;101440.19;;;9.52;98.55
11190;BME280;5651;50.926;4.718;2023-04-06T10:31:00;101434.09;;;9.47;97.60
11190;BME280;5651;50.926;4.718;2023-04-06T10:33:28;101439.31;;;9.52;96.07
11190;BME280;5651;50.926;4.718;2023-04-06T10:35:54;101441.84;;;9.44;96.33
11190;BME280;5651;50.926;4.718;2023-04-06T10:38:34;101432.28;;;9.40;97.55
11190;BME280;5651;50.926;4.718;2023-04-06T10:41:04;101427.16;;;9.49;97.73
11190;BME280;5651;50.926;4.718;2023-04-06T10:43:34;101424.44;;;9.39;99.75
11190;BME280;5651;50.926;4.718;2023-04-06T10:46:04;101429.78;;;9.56;97.32
11190;BME280;5651;50.926;4.718;2023-04-06T10:48:44;101424.53;;;9.49;98.54
11190;BME280;5651;50.926;4.718;2023-04-06T10:51:17;101409.66;;;9.33;99.04
11190;BME280;5651;50.926;4.718;2023-04-06T10:53:45;101422.34;;;9.02;100.00
11190;BME280;5651;50.926;4.718;2023-04-06T10:56:16;101426.09;;;9.29;99.54
11190;BME280;5651;50.926;4.718;2023-04-06T10:58:47;101420.81;;;9.21;100.00
11190;BME280;5651;50.926;4.718;2023-04-06T11:01:20;101413.94;;;9.29;100.00
11190;BME280;5651;50.926;4.718;2023-04-06T11:03:51;101414.97;;;9.45;99.91
11190;BME280;5651;50.926;4.718;2023-04-06T11:06:22;101420.28;;;9.58;99.81
11190;BME280;5651;50.926;4.718;2023-04-06T11:08:49;101412.59;;;9.70;99.43
11190;BME280;5651;50.926;4.718;2023-04-06T11:11:17;101410.84;;;9.69;100.00
11190;BME280;5651;50.926;4.718;2023-04-06T11:13:55;101411.03;;;9.92;98.53
11190;BME280;5651;50.926;4.718;2023-04-06T11:16:23;101405.66;;;9.72;100.00
11190;BME280;5651;50.926;4.718;2023-04-06T11:21:19;101396.22;;;9.83;100.00
11190;BME280;5651;50.926;4.718;2023-04-06T11:23:45;101404.91;;;9.86;100.00
11190;BME280;5651;50.926;4.718;2023-04-06T11:26:12;101397.81;;;9.67;100.00
11190;BME280;5651;50.926;4.718;2023-04-06T11:28:42;101393.56;;;9.80;100.00
11190;BME280;5651;50.926;4.718;2023-04-06T11:31:09;101389.41;;;10.03;100.00
11190;BME280;5651;50.926;4.718;2023-04-06T11:33:37;101388.47;;;9.96;100.00
11190;BME280;5651;50.926;4.718;2023-04-06T11:36:04;101387.63;;;9.97;100.00
11190;BME280;5651;50.926;4.718;2023-04-06T11:38:31;101397.97;;;9.88;100.00
11190;BME280;5651;50.926;4.718;2023-04-06T11:40:57;101379.84;;;10.00;98.43
11190;BME280;5651;50.926;4.718;2023-04-06T11:43:30;101376.25;;;9.84;100.00
11190;BME280;5651;50.926;4.718;2023-04-06T11:46:00;101377.00;;;9.67;100.00
11190;BME280;5651;50.926;4.718;2023-04-06T11:48:27;101366.63;;;9.72;100.00
11190;BME280;5651;50.926;4.718;2023-04-06T11:50:58;101376.25;;;9.82;100.00
11190;BME280;5651;50.926;4.718;2023-04-06T11:53:29;101382.38;;;9.91;100.00
11190;BME280;5651;50.926;4.718;2023-04-06T11:55:56;101369.38;;;9.92;100.00
11190;BME280;5651;50.926;4.718;2023-04-06T11:58:22;101368.47;;;9.86;100.00
11190;BME280;5651;50.926;4.718;2023-04-06T12:00:48;101363.19;;;9.78;100.00
11190;BME280;5651;50.926;4.718;2023-04-06T12:03:14;101366.59;;;9.66;100.00
11190;BME280;5651;50.926;4.718;2023-04-06T12:05:40;101367.50;;;9.74;100.00
11190;BME280;5651;50.926;4.718;2023-04-06T12:08:06;101365.78;;;9.75;100.00
11190;BME280;5651;50.926;4.718;2023-04-06T12:10:31;101364.03;;;9.71;100.00
11190;BME280;5651;50.926;4.718;2023-04-06T12:12:57;101358.69;;;9.57;100.00
11190;BME280;5651;50.926;4.718;2023-04-06T12:15:23;101364.03;;;9.72;100.00
11190;BME280;5651;50.926;4.718;2023-04-06T12:17:49;101364.88;;;9.68;100.00
11190;BME280;5651;50.926;4.718;2023-04-06T12:20:15;101350.00;;;9.53;100.00
11190;BME280;5651;50.926;4.718;2023-04-06T12:22:41;101355.19;;;9.53;100.00
11190;BME280;5651;50.926;4.718;2023-04-06T12:25:07;101350.84;;;9.50;100.00
11190;BME280;5651;50.926;4.718;2023-04-06T12:27:33;101349.28;;;9.73;100.00
11190;BME280;5651;50.926;4.718;2023-04-06T12:29:59;101342.44;;;9.87;100.00
11190;BME280;5651;50.926;4.718;2023-04-06T12:32:25;101345.06;;;9.87;100.00
11190;BME280;5651;50.926;4.718;2023-04-06T12:34:52;101347.69;;;9.93;100.00
11190;BME280;5651;50.926;4.718;2023-04-06T12:37:18;101337.34;;;10.04;100.00
11190;BME280;5651;50.926;4.718;2023-04-06T12:39:44;101331.28;;;10.05;100.00
11190;BME280;5651;50.926;4.718;2023-04-06T12:42:10;101329.50;;;9.98;100.00
11190;BME280;5651;50.926;4.718;2023-04-06T12:44:38;101335.47;;;9.83;100.00
11190;BME280;5651;50.926;4.718;2023-04-06T12:47:04;101325.19;;;10.06;100.00
11190;BME280;5651;50.926;4.718;2023-04-06T12:49:30;101322.66;;;10.23;100.00
11190;BME280;5651;50.926;4.718;2023-04-06T12:51:57;101323.56;;;10.27;100.00
11190;BME280;5651;50.926;4.718;2023-04-06T12:54:22;101316.59;;;10.27;100.00
11190;BME280;5651;50.926;4.718;2023-04-06T12:56:48;101321.84;;;10.35;99.62
11190;BME280;5651;50.926;4.718;2023-04-06T12:59:14;101318.34;;;10.25;100.00
11190;BME280;5651;50.926;4.718;2023-04-06T13:01:40;101314.84;;;10.22;100.00
11190;BME280;5651;50.926;4.718;2023-04-06T13:04:06;101322.72;;;10.33;100.00
11190;BME280;5651;50.926;4.718;2023-04-06T13:06:32;101314.81;;;10.12;100.00
11190;BME280;5651;50.926;4.718;2023-04-06T13:08:58;101307.81;;;10.08;100.00
11190;BME280;5651;50.926;4.718;2023-04-06T13:11:25;101307.94;;;10.25;100.00